createdAt,value
2024-01-17T00:02:07.312Z,-11.30
2024-01-17T00:04:37.988Z,-11.20
2024-01-17T00:07:09.274Z,-11.10
2024-01-17T00:09:39.485Z,-11.20
2024-01-17T00:12:11.763Z,-11.20
2024-01-17T00:14:43.034Z,-11.30
2024-01-17T00:17:13.884Z,-11.50
2024-01-17T00:19:44.239Z,-11.70
2024-01-17T00:22:20.853Z,-11.90
2024-01-17T00:24:53.049Z,-12.10
2024-01-17T00:27:27.080Z,-12.40
2024-01-17T00:29:59.956Z,-12.50
2024-01-17T00:32:30.993Z,-12.60
2024-01-17T00:35:01.932Z,-12.60
2024-01-17T00:37:34.264Z,-12.60
2024-01-17T00:40:04.529Z,-12.80
2024-01-17T00:42:36.330Z,-13.00
2024-01-17T00:45:08.289Z,-13.30
2024-01-17T00:47:38.767Z,-13.50
2024-01-17T00:50:09.803Z,-13.80
2024-01-17T00:52:40.016Z,-13.90
2024-01-17T00:55:10.993Z,-14.10
2024-01-17T00:57:43.485Z,-14.30
2024-01-17T01:00:14.749Z,-14.30
2024-01-17T01:02:45.494Z,-14.10
2024-01-17T01:05:16.572Z,-14.00
2024-01-17T01:07:46.816Z,-14.00
2024-01-17T01:10:17.138Z,-14.00
2024-01-17T01:12:49.012Z,-14.10
2024-01-17T01:15:19.288Z,-14.10
2024-01-17T01:17:49.594Z,-14.20
2024-01-17T01:20:20.043Z,-14.40
2024-01-17T01:22:50.436Z,-14.50
2024-01-17T01:25:20.650Z,-14.60
2024-01-17T01:27:53.193Z,-14.60
2024-01-17T01:30:23.553Z,-14.80
2024-01-17T01:32:53.806Z,-14.80
2024-01-17T01:35:24.061Z,-14.80
2024-01-17T01:37:54.207Z,-14.90
2024-01-17T01:40:24.340Z,-15.10
2024-01-17T01:43:00.229Z,-15.30
2024-01-17T01:45:30.376Z,-15.50
2024-01-17T01:48:01.156Z,-15.70
2024-01-17T01:50:31.462Z,-15.80
2024-01-17T01:53:01.640Z,-16.00
2024-01-17T01:55:32.543Z,-16.10
2024-01-17T01:58:04.721Z,-16.10
2024-01-17T02:00:35.153Z,-16.20
2024-01-17T02:03:05.519Z,-16.20
2024-01-17T02:05:35.871Z,-16.20
2024-01-17T02:08:06.189Z,-16.30
2024-01-17T02:10:37.727Z,-16.40
2024-01-17T02:13:10.649Z,-16.40
2024-01-17T02:15:40.811Z,-16.50
2024-01-17T02:18:11.328Z,-16.60
2024-01-17T02:20:42.595Z,-16.70
2024-01-17T02:23:29.112Z,-16.70
2024-01-17T02:26:02.070Z,-16.70
2024-01-17T02:28:33.590Z,-16.70
2024-01-17T02:31:04.462Z,-16.70
2024-01-17T02:33:36.088Z,-16.70
2024-01-17T02:36:06.960Z,-16.70
2024-01-17T02:38:37.478Z,-16.70
2024-01-17T02:41:10.932Z,-16.70
2024-01-17T02:43:41.229Z,-16.60
2024-01-17T02:46:12.179Z,-16.60
2024-01-17T02:48:42.435Z,-16.60
2024-01-17T02:51:13.009Z,-16.70
2024-01-17T02:53:43.605Z,-16.70
2024-01-17T02:56:16.099Z,-16.60
2024-01-17T02:58:46.464Z,-16.60
2024-01-17T03:01:17.328Z,-16.50
2024-01-17T03:03:47.606Z,-16.50
2024-01-17T03:06:20.040Z,-16.40
2024-01-17T03:08:50.724Z,-16.40
2024-01-17T03:11:22.888Z,-16.40
2024-01-17T03:13:53.704Z,-16.50
2024-01-17T03:16:24.365Z,-16.50
2024-01-17T03:18:54.732Z,-16.50
2024-01-17T03:21:25.591Z,-16.50
2024-01-17T03:24:02.794Z,-16.50
2024-01-17T03:26:34.702Z,-16.40
2024-01-17T03:29:05.368Z,-16.40
2024-01-17T03:31:35.610Z,-16.50
2024-01-17T03:34:05.874Z,-16.60
2024-01-17T03:36:36.304Z,-16.60
2024-01-17T03:39:06.513Z,-16.70
2024-01-17T03:41:38.331Z,-16.70
2024-01-17T03:44:08.726Z,-16.70
2024-01-17T03:46:38.974Z,-16.70
2024-01-17T03:49:09.260Z,-16.70
2024-01-17T03:51:39.477Z,-16.80
2024-01-17T03:54:10.014Z,-16.90
2024-01-17T03:56:41.852Z,-16.80
2024-01-17T03:59:13.210Z,-16.90
2024-01-17T04:01:46.865Z,-16.80
2024-01-17T04:04:17.137Z,-16.90
2024-01-17T04:06:47.346Z,-16.90
2024-01-17T04:09:17.588Z,-16.90
2024-01-17T04:11:49.678Z,-17.00
2024-01-17T04:14:20.022Z,-17.00
2024-01-17T04:16:50.190Z,-16.90
2024-01-17T04:19:20.523Z,-16.70
2024-01-17T04:21:50.723Z,-16.60
2024-01-17T04:24:20.847Z,-16.40
2024-01-17T04:26:52.794Z,-16.30
2024-01-17T04:29:22.937Z,-16.30
2024-01-17T04:31:54.428Z,-16.50
2024-01-17T04:34:24.649Z,-16.60
2024-01-17T04:36:55.560Z,-16.80
2024-01-17T04:39:26.595Z,-16.90
2024-01-17T04:42:00.702Z,-16.90
2024-01-17T04:44:32.595Z,-16.90
2024-01-17T04:47:02.926Z,-16.90
2024-01-17T04:49:33.307Z,-16.80
2024-01-17T04:52:05.427Z,-16.80
2024-01-17T04:54:35.557Z,-16.90
2024-01-17T04:57:07.624Z,-16.90
2024-01-17T04:59:37.921Z,-17.00
2024-01-17T05:02:08.324Z,-17.00
2024-01-17T05:04:38.533Z,-17.00
2024-01-17T05:07:08.684Z,-16.90
2024-01-17T05:09:39.678Z,-16.90
2024-01-17T05:12:12.829Z,-17.00
2024-01-17T05:14:43.145Z,-17.10
2024-01-17T05:17:13.879Z,-17.10
2024-01-17T05:19:44.534Z,-17.00
2024-01-17T05:22:16.314Z,-16.70
2024-01-17T05:24:46.441Z,-16.30
2024-01-17T05:27:18.234Z,-16.20
2024-01-17T05:29:49.016Z,-16.20
2024-01-17T05:32:19.154Z,-16.20
2024-01-17T05:34:52.214Z,-16.20
2024-01-17T05:37:23.850Z,-16.10
2024-01-17T05:39:53.985Z,-15.80
2024-01-17T05:42:26.011Z,-15.60
2024-01-17T05:44:56.188Z,-15.60
2024-01-17T05:47:26.437Z,-15.50
2024-01-17T05:49:56.688Z,-15.50
2024-01-17T05:52:26.920Z,-15.50
2024-01-17T05:54:57.126Z,-15.50
2024-01-17T05:57:30.215Z,-15.50
2024-01-17T06:00:00.918Z,-15.50
2024-01-17T06:02:31.136Z,-15.60
2024-01-17T06:05:02.263Z,-15.60
2024-01-17T06:07:34.270Z,-15.80
2024-01-17T06:10:05.049Z,-15.80
2024-01-17T06:12:36.884Z,-15.80
2024-01-17T06:15:07.721Z,-15.90
2024-01-17T06:17:38.125Z,-15.90
2024-01-17T06:20:11.734Z,-15.90
2024-01-17T06:22:42.065Z,-16.00
2024-01-17T06:25:12.894Z,-15.90
2024-01-17T06:27:44.725Z,-15.90
2024-01-17T06:30:16.064Z,-16.00
2024-01-17T06:32:46.385Z,-16.00
2024-01-17T06:35:17.296Z,-16.10
2024-01-17T06:37:47.912Z,-16.10
2024-01-17T06:40:18.210Z,-16.20
2024-01-17T06:42:49.926Z,-16.30
2024-01-17T06:45:20.162Z,-16.50
2024-01-17T06:47:50.481Z,-16.60
2024-01-17T06:50:21.731Z,-16.70
2024-01-17T06:52:51.865Z,-16.80
2024-01-17T06:55:22.008Z,-16.80
2024-01-17T06:57:53.869Z,-16.50
2024-01-17T07:00:27.219Z,-16.30
2024-01-17T07:02:58.393Z,-16.30
2024-01-17T07:05:28.770Z,-16.40
2024-01-17T07:07:58.956Z,-16.40
2024-01-17T07:10:29.281Z,-16.50
2024-01-17T07:13:00.989Z,-16.60
2024-01-17T07:15:31.555Z,-16.70
2024-01-17T07:18:01.764Z,-16.70
2024-01-17T07:20:32.020Z,-16.80
2024-01-17T07:23:02.122Z,-16.60
2024-01-17T07:25:33.001Z,-16.30
2024-01-17T07:28:04.743Z,-16.30
2024-01-17T07:30:35.046Z,-16.30
2024-01-17T07:33:05.734Z,-16.20
2024-01-17T07:35:36.077Z,-16.20
2024-01-17T07:38:06.370Z,-16.20
2024-01-17T07:40:36.530Z,-16.30
2024-01-17T07:43:08.301Z,-16.40
2024-01-17T07:45:38.493Z,-16.40
2024-01-17T07:48:09.115Z,-16.30
2024-01-17T07:50:39.332Z,-16.20
2024-01-17T07:53:09.548Z,-16.20
2024-01-17T07:55:39.761Z,-16.10
2024-01-17T07:58:11.868Z,-15.90
2024-01-17T08:00:42.086Z,-15.70
2024-01-17T08:03:12.871Z,-15.70
2024-01-17T08:05:43.182Z,-15.60
2024-01-17T08:08:13.671Z,-15.60
2024-01-17T08:10:44.272Z,-15.70
2024-01-17T08:13:16.156Z,-15.60
2024-01-17T08:15:46.661Z,-15.60
2024-01-17T08:18:16.998Z,-15.70
2024-01-17T08:20:47.626Z,-15.70
2024-01-17T08:23:17.845Z,-15.80
2024-01-17T08:25:48.883Z,-15.90
2024-01-17T08:28:20.592Z,-15.90
2024-01-17T08:30:50.841Z,-16.00
2024-01-17T08:33:21.055Z,-15.90
2024-01-17T08:35:51.324Z,-15.90
2024-01-17T08:38:21.487Z,-15.80
2024-01-17T08:40:51.651Z,-15.70
2024-01-17T08:43:23.403Z,-15.60
2024-01-17T08:45:54.397Z,-15.50
2024-01-17T08:48:24.618Z,-15.50
2024-01-17T08:50:54.859Z,-15.40
2024-01-17T08:53:25.736Z,-15.30
2024-01-17T08:55:56.104Z,-15.10
2024-01-17T08:58:28.099Z,-15.10
2024-01-17T09:00:58.450Z,-14.90
2024-01-17T09:03:30.948Z,-14.80
2024-01-17T09:06:01.260Z,-14.70
2024-01-17T09:08:31.641Z,-14.50
2024-01-17T09:11:02.128Z,-14.40
2024-01-17T09:13:33.862Z,-14.30
2024-01-17T09:16:04.213Z,-14.20
2024-01-17T09:18:34.413Z,-14.00
2024-01-17T09:21:05.025Z,-13.90
2024-01-17T09:23:35.214Z,-13.90
2024-01-17T09:26:06.603Z,-13.80
2024-01-17T09:28:38.558Z,-13.80
2024-01-17T09:31:08.776Z,-13.80
2024-01-17T09:33:40.050Z,-13.80
2024-01-17T09:36:10.908Z,-13.80
2024-01-17T09:38:41.020Z,-13.80
2024-01-17T09:41:12.127Z,-13.90
2024-01-17T09:43:44.176Z,-13.90
2024-01-17T09:46:14.754Z,-13.80
2024-01-17T09:48:45.301Z,-13.80
2024-01-17T09:51:18.734Z,-13.80
2024-01-17T09:53:52.111Z,-13.70
2024-01-17T09:56:26.851Z,-13.70
2024-01-17T09:58:59.281Z,-13.70
2024-01-17T10:01:33.344Z,-13.60
2024-01-17T10:04:05.686Z,-13.60
2024-01-17T10:06:36.573Z,-13.50
2024-01-17T10:09:07.455Z,-13.40
2024-01-17T10:11:37.845Z,-13.40
2024-01-17T10:14:09.604Z,-13.30
2024-01-17T10:16:39.848Z,-13.20
2024-01-17T10:19:10.105Z,-13.20
2024-01-17T10:21:41.519Z,-13.20
2024-01-17T10:24:13.862Z,-13.20
2024-01-17T10:26:44.810Z,-13.10
2024-01-17T10:29:17.039Z,-13.10
2024-01-17T10:31:48.505Z,-13.20
2024-01-17T10:34:18.844Z,-13.20
2024-01-17T10:36:49.701Z,-13.30
2024-01-17T10:39:23.746Z,-13.30
2024-01-17T10:41:56.389Z,-13.40
2024-01-17T10:44:29.712Z,-13.50
2024-01-17T10:47:00.245Z,-13.60
2024-01-17T10:49:32.326Z,-13.80
2024-01-17T10:52:07.466Z,-13.90
2024-01-17T10:54:52.652Z,-14.10
2024-01-17T10:57:23.804Z,-14.10
2024-01-17T10:59:55.798Z,-14.20
2024-01-17T11:02:27.227Z,-14.30
2024-01-17T11:05:01.688Z,-14.40
2024-01-17T11:07:32.241Z,-14.50
2024-01-17T11:10:04.903Z,-14.60
2024-01-17T11:12:36.333Z,-14.70
2024-01-17T11:15:10.238Z,-14.70
2024-01-17T11:17:41.546Z,-14.80
2024-01-17T11:20:13.888Z,-14.90
2024-01-17T11:22:44.454Z,-15.00
2024-01-17T11:25:20.995Z,-15.10
2024-01-17T11:27:59.014Z,-15.20
2024-01-17T11:30:44.824Z,-15.30
2024-01-17T11:33:16.656Z,-15.40
2024-01-17T11:35:48.715Z,-15.50
2024-01-17T11:38:33.459Z,-15.70
2024-01-17T11:41:08.815Z,-15.90
2024-01-17T11:43:40.798Z,-16.10
2024-01-17T11:46:13.430Z,-16.30
2024-01-17T11:48:44.579Z,-16.50
2024-01-17T11:51:18.604Z,-16.60
2024-01-17T11:53:52.473Z,-16.80
2024-01-17T11:56:25.790Z,-17.00
2024-01-17T11:59:00.876Z,-17.20
2024-01-17T12:01:45.109Z,-17.30
2024-01-17T12:04:17.092Z,-17.40
2024-01-17T12:06:52.424Z,-17.60
2024-01-17T12:09:25.773Z,-17.50
2024-01-17T12:11:58.289Z,-17.60
2024-01-17T12:14:31.836Z,-17.40
2024-01-17T12:17:04.256Z,-17.40
2024-01-17T12:19:35.838Z,-17.10
2024-01-17T12:22:07.023Z,-17.00
2024-01-17T12:24:43.941Z,-16.80
2024-01-17T12:27:21.025Z,-16.60
2024-01-17T12:29:56.274Z,-16.60
2024-01-17T12:32:28.147Z,-16.50
2024-01-17T12:34:58.474Z,-16.50
2024-01-17T12:37:28.741Z,-16.50
2024-01-17T12:39:58.919Z,-16.50
2024-01-17T12:42:29.228Z,-16.40
2024-01-17T12:44:59.754Z,-16.40
2024-01-17T12:47:31.822Z,-16.40
2024-01-17T12:50:02.061Z,-16.40
2024-01-17T12:52:32.451Z,-16.40
2024-01-17T12:55:02.773Z,-16.30
2024-01-17T12:57:34.621Z,-16.30
2024-01-17T13:00:12.487Z,-16.10
2024-01-17T13:02:44.389Z,-16.00
2024-01-17T13:05:15.297Z,-15.70
2024-01-17T13:07:47.656Z,-15.50
2024-01-17T13:10:19.357Z,-15.20
2024-01-17T13:12:50.158Z,-14.90
2024-01-17T13:15:20.612Z,-14.70
2024-01-17T13:17:52.472Z,-14.50
2024-01-17T13:20:23.909Z,-14.30
2024-01-17T13:22:55.256Z,-14.20
2024-01-17T13:25:26.271Z,-14.00
2024-01-17T13:28:01.067Z,-13.70
2024-01-17T13:30:36.059Z,-13.50
2024-01-17T13:33:09.318Z,-13.30
2024-01-17T13:35:41.471Z,-13.00
2024-01-17T13:38:11.692Z,-12.80
2024-01-17T13:40:41.882Z,-12.60
2024-01-17T13:43:12.939Z,-12.60
2024-01-17T13:45:43.179Z,-12.50
2024-01-17T13:48:15.298Z,-12.60
2024-01-17T13:50:46.538Z,-12.70
2024-01-17T13:53:30.722Z,-12.80
2024-01-17T13:56:01.660Z,-12.90
2024-01-17T13:58:33.750Z,-13.00
2024-01-17T14:01:07.114Z,-13.10
2024-01-17T14:03:41.421Z,-13.20
2024-01-17T14:06:12.115Z,-13.30
2024-01-17T14:08:42.702Z,-13.40
2024-01-17T14:11:15.117Z,-13.40
2024-01-17T14:13:46.233Z,-13.40
2024-01-17T14:16:15.228Z,-13.20
2024-01-17T14:18:47.317Z,-13.10
2024-01-17T14:21:17.863Z,-12.90
2024-01-17T14:23:48.180Z,-12.70
2024-01-17T14:26:20.135Z,-12.50
2024-01-17T14:28:50.311Z,-12.50
2024-01-17T14:31:20.549Z,-12.30
2024-01-17T14:33:52.477Z,-12.20
2024-01-17T14:36:22.983Z,-12.00
2024-01-17T14:38:53.455Z,-11.70
2024-01-17T14:41:25.720Z,-11.30
2024-01-17T14:43:55.980Z,-11.20
2024-01-17T14:46:26.109Z,-11.20
2024-01-17T14:48:57.994Z,-11.20
2024-01-17T14:51:28.222Z,-11.30
2024-01-17T14:53:58.528Z,-11.40
2024-01-17T14:56:28.663Z,-11.50
2024-01-17T14:58:59.469Z,-11.50
2024-01-17T15:01:33.370Z,-11.50
2024-01-17T15:04:05.332Z,-11.50
2024-01-17T15:06:35.910Z,-11.50
2024-01-17T15:09:07.286Z,-11.50
2024-01-17T15:11:37.480Z,-11.50
2024-01-17T15:14:07.831Z,-11.50
2024-01-17T15:16:38.188Z,-11.50
2024-01-17T15:19:12.059Z,-11.50
2024-01-17T15:21:42.319Z,-11.50
2024-01-17T15:24:13.353Z,-11.50
2024-01-17T15:26:44.381Z,-11.40
2024-01-17T15:29:16.140Z,-11.40
2024-01-17T15:31:46.305Z,-11.30
2024-01-17T15:34:19.518Z,-11.30
2024-01-17T15:36:51.180Z,-11.30
2024-01-17T15:39:23.279Z,-11.20
2024-01-17T15:41:55.529Z,-11.20
2024-01-17T15:44:26.919Z,-11.10
2024-01-17T15:46:57.137Z,-11.10
2024-01-17T15:49:29.269Z,-11.00
2024-01-17T15:51:59.814Z,-10.90
2024-01-17T15:54:30.150Z,-10.80
2024-01-17T15:57:00.475Z,-10.70
2024-01-17T15:59:32.197Z,-10.50
2024-01-17T16:02:02.352Z,-10.30
2024-01-17T16:04:36.757Z,-10.10
2024-01-17T16:07:07.398Z,-10.00
2024-01-17T16:09:38.256Z,-10.00
2024-01-17T16:12:09.342Z,-9.90
2024-01-17T16:14:43.308Z,-9.60
2024-01-17T16:17:13.788Z,-9.30
2024-01-17T16:19:45.719Z,-9.00
2024-01-17T16:22:16.034Z,-8.70
2024-01-17T16:24:46.271Z,-8.60
2024-01-17T16:27:16.627Z,-8.40
2024-01-17T16:29:46.783Z,-8.30
2024-01-17T16:32:17.770Z,-8.00
2024-01-17T16:34:49.721Z,-7.90
2024-01-17T16:37:20.046Z,-7.90
2024-01-17T16:39:50.890Z,-7.90
2024-01-17T16:42:25.807Z,-7.90
2024-01-17T16:44:56.663Z,-7.80
2024-01-17T16:47:27.042Z,-7.70
2024-01-17T16:49:58.806Z,-7.80
2024-01-17T16:52:29.145Z,-7.70
2024-01-17T16:54:59.218Z,-7.70
2024-01-17T16:57:30.362Z,-7.50
2024-01-17T17:00:06.908Z,-7.40
2024-01-17T17:02:54.467Z,-7.40
2024-01-17T17:05:26.689Z,-7.60
2024-01-17T17:07:56.885Z,-8.00
2024-01-17T17:10:28.253Z,-7.90
2024-01-17T17:12:58.461Z,-7.90
2024-01-17T17:15:28.647Z,-8.20
2024-01-17T17:17:59.016Z,-8.50
2024-01-17T17:20:30.825Z,-8.70
2024-01-17T17:23:02.381Z,-8.50
2024-01-17T17:25:32.587Z,-8.40
2024-01-17T17:28:03.004Z,-8.00
2024-01-17T17:30:33.417Z,-7.90
2024-01-17T17:33:04.186Z,-7.70
2024-01-17T17:35:36.055Z,-7.60
2024-01-17T17:38:06.994Z,-7.40
2024-01-17T17:40:42.650Z,-7.00
2024-01-17T17:43:15.387Z,-6.90
2024-01-17T17:45:45.896Z,-7.10
2024-01-17T17:48:18.405Z,-7.20
2024-01-17T17:50:51.496Z,-7.30
2024-01-17T17:53:23.046Z,-7.30
2024-01-17T17:55:53.411Z,-7.30
2024-01-17T17:58:25.513Z,-7.40
2024-01-17T18:00:57.780Z,-7.20
2024-01-17T18:03:29.217Z,-7.00
2024-01-17T18:06:01.492Z,-6.80
2024-01-17T18:08:31.689Z,-6.90
2024-01-17T18:11:05.240Z,-7.00
2024-01-17T18:13:35.559Z,-7.00
2024-01-17T18:16:05.831Z,-6.80
2024-01-17T18:18:37.580Z,-6.80
2024-01-17T18:21:12.211Z,-6.80
2024-01-17T18:23:42.535Z,-6.70
2024-01-17T18:26:12.699Z,-6.60
2024-01-17T18:28:51.729Z,-6.60
2024-01-17T18:31:21.830Z,-6.50
2024-01-17T18:33:52.176Z,-6.40
2024-01-17T18:36:24.042Z,-6.30
2024-01-17T18:38:54.293Z,-6.10
2024-01-17T18:41:24.479Z,-6.40
2024-01-17T18:43:54.640Z,-6.40
2024-01-17T18:46:24.865Z,-6.60
2024-01-17T18:48:55.148Z,-6.90
2024-01-17T18:51:28.603Z,-7.00
2024-01-17T18:53:59.355Z,-7.10
2024-01-17T18:56:31.560Z,-7.20
2024-01-17T18:59:04.926Z,-7.30
2024-01-17T19:01:36.075Z,-7.10
2024-01-17T19:04:09.685Z,-7.20
2024-01-17T19:06:43.619Z,-7.30
2024-01-17T19:09:17.724Z,-7.40
2024-01-17T19:11:48.416Z,-7.40
2024-01-17T19:14:20.242Z,-7.50
2024-01-17T19:16:51.326Z,-7.50
2024-01-17T19:19:23.367Z,-7.50
2024-01-17T19:21:55.471Z,-7.50
2024-01-17T19:24:25.593Z,-7.50
2024-01-17T19:26:56.064Z,-7.60
2024-01-17T19:29:26.330Z,-7.60
2024-01-17T19:31:56.676Z,-7.70
2024-01-17T19:34:27.011Z,-7.90
2024-01-17T19:36:59.190Z,-7.90
2024-01-17T19:39:29.411Z,-8.00
2024-01-17T19:41:59.651Z,-8.00
2024-01-17T19:44:30.050Z,-8.10
2024-01-17T19:47:00.420Z,-8.10
2024-01-17T19:49:32.915Z,-8.10
2024-01-17T19:52:05.992Z,-8.20
2024-01-17T19:54:36.215Z,-8.40
2024-01-17T19:57:06.666Z,-8.30
2024-01-17T19:59:37.067Z,-8.40
2024-01-17T20:02:07.494Z,-8.40
2024-01-17T20:04:38.254Z,-8.40
2024-01-17T20:07:10.409Z,-8.30
2024-01-17T20:09:40.569Z,-8.10
2024-01-17T20:12:11.198Z,-8.00
2024-01-17T20:14:41.404Z,-7.80
2024-01-17T20:17:11.561Z,-7.60
2024-01-17T20:19:41.747Z,-7.50
2024-01-17T20:22:13.936Z,-7.50
2024-01-17T20:24:45.800Z,-7.60
2024-01-17T20:27:20.300Z,-7.80
2024-01-17T20:29:51.087Z,-8.10
2024-01-17T20:32:21.395Z,-8.20
2024-01-17T20:34:51.755Z,-8.40
2024-01-17T20:37:24.027Z,-8.50
2024-01-17T20:39:54.416Z,-8.60
2024-01-17T20:42:24.757Z,-8.70
2024-01-17T20:44:54.964Z,-8.80
2024-01-17T20:47:25.807Z,-8.90
2024-01-17T20:49:55.999Z,-9.00
2024-01-17T20:52:27.959Z,-9.00
2024-01-17T20:54:58.395Z,-9.00
2024-01-17T20:57:28.724Z,-9.00
2024-01-17T20:59:59.075Z,-9.00
2024-01-17T21:02:29.650Z,-9.10
2024-01-17T21:04:59.825Z,-9.10
2024-01-17T21:07:31.888Z,-9.10
2024-01-17T21:10:02.759Z,-9.20
2024-01-17T21:12:32.938Z,-9.20
2024-01-17T21:15:03.185Z,-9.30
2024-01-17T21:17:33.385Z,-9.50
2024-01-17T21:20:05.594Z,-9.60
2024-01-17T21:22:37.284Z,-9.70
2024-01-17T21:25:08.576Z,-9.70
2024-01-17T21:27:38.900Z,-9.80
2024-01-17T21:30:10.784Z,-9.90
2024-01-17T21:32:41.221Z,-10.00
2024-01-17T21:35:12.150Z,-10.10
2024-01-17T21:37:46.090Z,-10.30
2024-01-17T21:40:16.506Z,-10.50
2024-01-17T21:42:46.583Z,-10.70
2024-01-17T21:45:16.861Z,-10.80
2024-01-17T21:47:47.303Z,-10.90
2024-01-17T21:50:17.664Z,-10.90
2024-01-17T21:52:49.445Z,-11.00
2024-01-17T21:55:19.714Z,-10.90
2024-01-17T21:57:49.973Z,-10.90
2024-01-17T22:00:21.165Z,-10.90
2024-01-17T22:02:51.334Z,-10.90
2024-01-17T22:05:21.753Z,-11.00
2024-01-17T22:07:53.480Z,-11.10
2024-01-17T22:10:24.008Z,-11.10
2024-01-17T22:12:54.142Z,-11.10
2024-01-17T22:15:27.217Z,-11.10
2024-01-17T22:17:57.833Z,-11.10
2024-01-17T22:20:28.058Z,-11.10
2024-01-17T22:22:59.844Z,-11.10
2024-01-17T22:25:30.098Z,-11.00
2024-01-17T22:28:00.262Z,-10.80
2024-01-17T22:30:30.847Z,-10.70
2024-01-17T22:33:01.655Z,-10.40
2024-01-17T22:35:32.005Z,-10.10
2024-01-17T22:38:03.765Z,-9.90
2024-01-17T22:40:33.923Z,-9.80
2024-01-17T22:43:05.362Z,-9.80
2024-01-17T22:45:35.661Z,-9.70
2024-01-17T22:48:09.003Z,-9.60
2024-01-17T22:50:39.737Z,-9.60
2024-01-17T22:53:11.517Z,-9.60
2024-01-17T22:55:41.633Z,-9.70
2024-01-17T22:58:11.771Z,-9.80
2024-01-17T23:00:42.779Z,-9.80
2024-01-17T23:03:13.192Z,-9.90
2024-01-17T23:05:43.462Z,-10.00
2024-01-17T23:08:15.293Z,-9.90
2024-01-17T23:10:45.524Z,-9.80
2024-01-17T23:13:15.874Z,-9.80
2024-01-17T23:15:46.105Z,-9.80
2024-01-17T23:18:17.711Z,-9.80
2024-01-17T23:20:48.513Z,-9.90
2024-01-17T23:23:20.259Z,-9.80
2024-01-17T23:25:50.377Z,-9.80
2024-01-17T23:28:20.509Z,-9.70
2024-01-17T23:30:52.408Z,-9.60
2024-01-17T23:33:23.129Z,-9.50
2024-01-17T23:35:53.521Z,-9.40
2024-01-17T23:38:25.261Z,-9.30
2024-01-17T23:40:55.478Z,-9.20
2024-01-17T23:43:25.597Z,-9.10
2024-01-17T23:45:55.721Z,-9.20
2024-01-17T23:48:25.885Z,-9.10
2024-01-17T23:50:56.119Z,-9.00
2024-01-17T23:53:28.326Z,-8.90
2024-01-17T23:55:58.442Z,-8.90
2024-01-17T23:58:28.797Z,-8.80
